Maersk Shenzhen — D5LD3 — position and weather

sailwx.info

Track history (hours):
 
Tides and Currents Weather Stations Pressure Air Temp Water Temp Dewpoint Dewpoint Depression Visibility Wind Speed Wind Dir Waves Ship Positions

Maersk Shenzhen

Last reported at 2017-Dec-07 06:25 UTC. Time now 2017-Dec-12 06:30 UTC.
Position N 40°43' W 029°04'.

Length 324 m; draft 14.4 m.

Type: Cargo ship. MMSI: 636017474.

Date/timePositionNaut miles runAvg speedWind from/ knotsBaromVisibWave heightAir tempDewpointWater temp
2017-Dec-07 06:25N 40°43' W 029°04'  
2017-Dec-02 16:07N 36°38' E 013°51'421.6
2017-Dec-02 15:57N 36°37' E 013°56'817.0
2017-Dec-02 15:30N 36°35' E 014°05'918.1
2017-Dec-02 15:00N 36°33' E 014°15'917.9
2017-Dec-02 14:30N 36°30' E 014°26'917.6
2017-Dec-02 14:00N 36°27' E 014°37'918.2
2017-Dec-02 13:30N 36°24' E 014°47'918.8
2017-Dec-02 13:00N 36°21' E 014°58'  
Track history (hours):
 
Tides and Currents Weather Stations Pressure Air Temp Water Temp Dewpoint Dewpoint Depression Visibility Wind Speed Wind Dir Waves Ship Positions

Maersk Shenzhen

Last reported at 2017-Dec-07 06:25 UTC. Time now 2017-Dec-12 06:30 UTC.
Position N 40°43' W 029°04'.

Length 324 m; draft 14.4 m.

Type: Cargo ship. MMSI: 636017474.

Date/timePositionNaut miles runAvg speedWind from/ knotsBaromVisibWave heightAir tempDewpointWater temp
2017-Dec-07 06:25N 40°43' W 029°04'  
2017-Dec-02 16:07N 36°38' E 013°51'421.6
2017-Dec-02 15:57N 36°37' E 013°56'817.0
2017-Dec-02 15:30N 36°35' E 014°05'918.1
2017-Dec-02 15:00N 36°33' E 014°15'917.9
2017-Dec-02 14:30N 36°30' E 014°26'917.6
2017-Dec-02 14:00N 36°27' E 014°37'918.2
2017-Dec-02 13:30N 36°24' E 014°47'918.8
2017-Dec-02 13:00N 36°21' E 014°58'  

Dump ship's entire track history